createdAt,value
2023-04-15T00:02:41.584Z,26.67
2023-04-15T00:07:41.708Z,26.48
2023-04-15T00:12:40.022Z,26.07
2023-04-15T00:17:41.319Z,25.80
2023-04-15T00:22:39.546Z,25.40
2023-04-15T00:27:38.837Z,25.20
2023-04-15T00:32:39.107Z,24.77
2023-04-15T00:37:38.354Z,24.49
2023-04-15T00:42:36.666Z,24.28
2023-04-15T00:47:36.957Z,23.95
2023-04-15T00:52:35.284Z,23.70
2023-04-15T00:57:34.533Z,23.50
2023-04-15T01:02:33.932Z,23.31
2023-04-15T01:07:33.021Z,23.13
2023-04-15T01:12:33.340Z,22.97
2023-04-15T01:17:33.608Z,22.79
2023-04-15T01:22:30.865Z,22.47
2023-04-15T01:27:31.164Z,22.35
2023-04-15T01:32:29.488Z,21.92
2023-04-15T01:37:29.751Z,21.72
2023-04-15T01:42:29.029Z,21.62
2023-04-15T01:47:28.285Z,21.56
2023-04-15T01:52:28.591Z,21.22
2023-04-15T01:57:25.856Z,20.99
2023-04-15T02:02:25.198Z,20.87
2023-04-15T02:07:24.306Z,20.54
2023-04-15T02:12:24.594Z,20.48
2023-04-15T02:17:22.940Z,20.29
2023-04-15T02:22:22.021Z,20.08
2023-04-15T02:27:20.325Z,20.05
2023-04-15T02:32:21.612Z,19.91
2023-04-15T02:37:20.907Z,19.87
2023-04-15T02:42:20.179Z,19.83
2023-04-15T02:47:18.498Z,19.71
2023-04-15T02:52:18.755Z,19.58
2023-04-15T02:57:18.004Z,19.36
2023-04-15T03:02:17.416Z,19.31
2023-04-15T03:07:15.573Z,19.04
2023-04-15T03:12:15.902Z,19.13
2023-04-15T03:17:15.209Z,19.02
2023-04-15T03:22:13.482Z,18.81
2023-04-15T03:27:12.748Z,18.76
2023-04-15T03:32:12.027Z,18.81
2023-04-15T03:37:11.338Z,18.98
2023-04-15T03:42:10.598Z,18.91
2023-04-15T03:47:09.899Z,18.81
2023-04-15T03:52:10.191Z,18.81
2023-04-15T03:57:07.484Z,18.76
2023-04-15T04:02:08.844Z,18.73
2023-04-15T04:07:07.071Z,18.72
2023-04-15T04:12:06.341Z,18.67
2023-04-15T04:17:05.619Z,18.75
2023-04-15T04:22:04.893Z,18.66
2023-04-15T04:27:04.205Z,18.54
2023-04-15T04:32:03.473Z,18.60
2023-04-15T04:37:06.871Z,18.58
2023-04-15T04:42:01.887Z,18.42
2023-04-15T04:47:01.198Z,18.27
2023-04-15T04:52:01.488Z,18.21
2023-04-15T04:56:59.599Z,18.35
2023-04-15T05:02:00.988Z,18.23
2023-04-15T05:06:59.111Z,18.32
2023-04-15T05:11:58.379Z,18.35
2023-04-15T05:16:56.664Z,18.35
2023-04-15T05:21:55.938Z,18.29
2023-04-15T05:26:56.235Z,18.30
2023-04-15T05:31:54.502Z,18.32
2023-04-15T05:36:52.822Z,18.39
2023-04-15T05:41:53.117Z,18.36
2023-04-15T05:46:54.402Z,18.39
2023-04-15T05:51:51.691Z,18.32
2023-04-15T05:56:50.961Z,18.25
2023-04-15T06:01:51.276Z,18.15
2023-04-15T06:06:48.532Z,17.95
2023-04-15T06:11:49.819Z,18.08
2023-04-15T06:16:48.099Z,18.00
2023-04-15T06:21:47.375Z,17.90
2023-04-15T06:26:47.649Z,17.82
2023-04-15T06:31:45.995Z,17.77
2023-04-15T06:36:46.056Z,17.90
2023-04-15T06:41:45.343Z,18.02
2023-04-15T06:46:44.609Z,17.95
2023-04-15T06:51:42.918Z,17.97
2023-04-15T06:57:24.215Z,17.78
2023-04-15T07:01:41.454Z,17.96
2023-04-15T07:06:41.837Z,17.79
2023-04-15T07:11:39.895Z,17.71
2023-04-15T07:16:41.279Z,17.71
2023-04-15T07:21:39.451Z,17.77
2023-04-15T07:26:37.547Z,17.79
2023-04-15T07:31:37.836Z,17.95
2023-04-15T07:36:37.175Z,17.82
2023-04-15T07:41:35.445Z,17.86
2023-04-15T07:46:34.852Z,17.92
2023-04-15T07:51:33.953Z,17.95
2023-04-15T07:56:32.276Z,17.92
2023-04-15T08:01:32.572Z,17.97
2023-04-15T08:06:31.858Z,17.93
2023-04-15T08:11:31.183Z,18.12
2023-04-15T08:16:32.705Z,17.89
2023-04-15T08:21:31.665Z,18.07
2023-04-15T08:26:29.046Z,18.00
2023-04-15T08:31:28.109Z,18.15
2023-04-15T08:36:28.365Z,19.00
2023-04-15T08:41:26.616Z,22.43
2023-04-15T08:46:25.911Z,24.53
2023-04-15T08:51:26.147Z,25.92
2023-04-15T08:56:25.400Z,26.82
2023-04-15T09:01:23.674Z,28.12
2023-04-15T09:06:22.919Z,27.94
2023-04-15T09:11:22.217Z,28.25
2023-04-15T09:16:21.547Z,28.89
2023-04-15T09:21:20.797Z,29.39
2023-04-15T09:26:20.079Z,29.52
2023-04-15T09:31:19.386Z,28.96
2023-04-15T09:36:18.667Z,29.41
2023-04-15T09:41:17.914Z,29.34
2023-04-15T09:46:17.277Z,29.08
2023-04-15T09:51:17.394Z,29.68
2023-04-15T09:56:15.681Z,29.67
2023-04-15T10:01:15.052Z,29.45
2023-04-15T10:06:14.358Z,29.16
2023-04-15T10:11:13.612Z,28.96
2023-04-15T10:16:12.875Z,28.92
2023-04-15T10:21:12.151Z,29.51
2023-04-15T10:26:11.408Z,29.04
2023-04-15T10:31:09.693Z,29.28
2023-04-15T10:36:10.975Z,29.60
2023-04-15T10:41:09.245Z,29.42
2023-04-15T10:46:08.590Z,30.16
2023-04-15T10:51:07.845Z,30.10
2023-04-15T10:56:08.132Z,29.52
2023-04-15T11:01:06.409Z,29.67
2023-04-15T11:06:06.668Z,30.05
2023-04-15T11:11:04.911Z,29.36
2023-04-15T11:16:04.296Z,29.12
2023-04-15T11:21:05.422Z,28.88
2023-04-15T11:26:03.662Z,28.37
2023-04-15T11:31:01.950Z,28.31
2023-04-15T11:36:01.232Z,28.25
2023-04-15T11:41:00.495Z,28.29
2023-04-15T11:45:59.928Z,28.46
2023-04-15T11:51:00.058Z,28.55
2023-04-15T11:55:59.319Z,28.92
2023-04-15T12:00:57.565Z,28.41
2023-04-15T12:05:56.858Z,28.83
2023-04-15T12:10:56.146Z,29.09
2023-04-15T12:15:57.482Z,29.00
2023-04-15T12:20:54.780Z,29.19
2023-04-15T12:25:55.061Z,28.81
2023-04-15T12:30:53.359Z,28.67
2023-04-15T12:35:53.622Z,28.96
2023-04-15T12:40:51.886Z,28.68
2023-04-15T12:45:52.194Z,28.29
2023-04-15T12:50:51.448Z,28.39
2023-04-15T12:55:49.838Z,28.02
2023-04-15T13:00:48.901Z,28.61
2023-04-15T13:05:49.174Z,29.09
2023-04-15T13:10:47.460Z,28.41
2023-04-15T13:15:46.720Z,28.61
2023-04-15T13:20:46.991Z,28.54
2023-04-15T13:25:46.287Z,28.76
2023-04-15T13:30:44.563Z,28.61
2023-04-15T13:35:44.891Z,28.86
2023-04-15T13:40:43.171Z,28.06
2023-04-15T13:45:43.512Z,28.14
2023-04-15T13:50:42.041Z,28.74
2023-04-15T13:55:40.967Z,28.62
2023-04-15T14:00:40.263Z,28.19
2023-04-15T14:05:41.540Z,29.24
2023-04-15T14:10:38.815Z,29.37
2023-04-15T14:15:38.221Z,28.71
2023-04-15T14:20:37.455Z,27.51
2023-04-15T14:25:37.126Z,27.02
2023-04-15T14:30:37.183Z,26.75
2023-04-15T14:35:35.325Z,26.52
2023-04-15T14:40:33.621Z,26.21
2023-04-15T14:45:33.901Z,26.48
2023-04-15T14:50:33.369Z,26.58
2023-04-15T14:55:31.350Z,26.58
2023-04-15T15:00:31.686Z,26.18
2023-04-15T15:05:30.000Z,26.23
2023-04-15T15:10:37.880Z,26.18
2023-04-15T15:15:29.139Z,26.29
2023-04-15T15:20:28.701Z,26.12
2023-04-15T15:25:26.759Z,26.20
2023-04-15T15:30:27.960Z,25.85
2023-04-15T15:35:26.216Z,25.80
2023-04-15T15:40:26.372Z,25.69
2023-04-15T15:45:24.618Z,25.70
2023-04-15T15:50:23.865Z,25.64
2023-04-15T15:55:23.097Z,25.77
2023-04-15T16:00:22.320Z,25.75
2023-04-15T16:05:21.568Z,25.58
2023-04-15T16:10:20.719Z,25.82
2023-04-15T16:15:19.926Z,25.67
2023-04-15T16:20:18.065Z,25.62
2023-04-15T16:25:18.285Z,25.65
2023-04-15T16:30:17.399Z,25.77
2023-04-15T16:35:16.881Z,25.36
2023-04-15T16:40:14.824Z,25.27
2023-04-15T16:45:15.435Z,25.58
2023-04-15T16:50:14.484Z,25.80
2023-04-15T16:55:13.602Z,25.47
2023-04-15T17:00:12.255Z,25.64
2023-04-15T17:05:14.249Z,25.72
2023-04-15T17:10:11.678Z,26.33
2023-04-15T17:15:11.081Z,26.23
2023-04-15T17:20:12.204Z,26.06
2023-04-15T17:25:09.342Z,25.94
2023-04-15T17:30:07.727Z,25.60
2023-04-15T17:35:07.690Z,25.91
2023-04-15T17:40:08.597Z,25.17
2023-04-15T17:45:06.629Z,24.18
2023-04-15T17:50:04.774Z,24.18
2023-04-15T17:55:05.252Z,23.69
2023-04-15T18:00:04.536Z,24.95
2023-04-15T18:05:03.059Z,26.05
2023-04-15T18:10:03.178Z,26.54
2023-04-15T18:15:02.176Z,26.21
2023-04-15T18:20:03.335Z,26.20
2023-04-15T18:25:00.459Z,26.47
2023-04-15T18:29:59.925Z,25.97
2023-04-15T18:34:58.928Z,26.62
2023-04-15T18:39:58.524Z,26.92
2023-04-15T18:44:57.741Z,26.12
2023-04-15T18:49:58.032Z,26.51
2023-04-15T18:54:57.976Z,26.66
2023-04-15T18:59:55.488Z,27.28
2023-04-15T19:04:56.276Z,27.59
2023-04-15T19:09:54.952Z,26.48
2023-04-15T19:14:53.130Z,26.39
2023-04-15T19:19:53.507Z,25.99
2023-04-15T19:24:51.740Z,26.25
2023-04-15T19:29:51.056Z,25.75
2023-04-15T19:34:51.195Z,25.64
2023-04-15T19:39:50.360Z,25.50
2023-04-15T19:44:48.619Z,25.13
2023-04-15T19:49:50.349Z,25.25
2023-04-15T19:54:51.417Z,26.76
2023-04-15T19:59:47.129Z,26.94
2023-04-15T20:04:45.770Z,26.60
2023-04-15T20:09:44.707Z,26.72
2023-04-15T20:14:44.219Z,26.52
2023-04-15T20:19:45.389Z,26.73
2023-04-15T20:24:42.654Z,26.62
2023-04-15T20:29:42.155Z,26.54
2023-04-15T20:34:40.739Z,26.54
2023-04-15T20:39:41.365Z,26.25
2023-04-15T20:44:40.626Z,26.43
2023-04-15T20:49:39.630Z,26.06
2023-04-15T20:54:40.300Z,26.35
2023-04-15T20:59:37.388Z,25.92
2023-04-15T21:04:37.549Z,26.06
2023-04-15T21:09:36.491Z,26.95
2023-04-15T21:14:35.770Z,26.12
2023-04-15T21:19:35.060Z,25.98
2023-04-15T21:24:33.353Z,25.90
2023-04-15T21:29:32.651Z,25.95
2023-04-15T21:34:32.000Z,25.97
2023-04-15T21:39:31.284Z,25.99
2023-04-15T21:44:30.577Z,27.72
2023-04-15T21:49:29.857Z,26.48
2023-04-15T21:54:30.338Z,26.35
2023-04-15T21:59:28.425Z,26.13
2023-04-15T22:04:28.768Z,26.28
2023-04-15T22:09:27.025Z,26.20
2023-04-15T22:14:27.318Z,25.80
2023-04-15T22:19:27.675Z,25.67
2023-04-15T22:24:32.521Z,26.44
2023-04-15T22:29:24.029Z,25.91
2023-04-15T22:34:26.344Z,27.27
2023-04-15T22:39:21.736Z,27.62
2023-04-15T22:44:22.839Z,28.70
2023-04-15T22:49:21.117Z,26.69
2023-04-15T22:54:20.366Z,26.45
2023-04-15T22:59:21.631Z,27.63
2023-04-15T23:04:25.872Z,26.81
2023-04-15T23:09:18.122Z,26.66
2023-04-15T23:14:17.395Z,26.48
2023-04-15T23:19:17.654Z,26.57
2023-04-15T23:24:17.954Z,26.63
2023-04-15T23:29:15.232Z,26.75
2023-04-15T23:34:16.513Z,26.67
2023-04-15T23:39:14.828Z,26.20
2023-04-15T23:44:15.074Z,25.47
2023-04-15T23:49:12.394Z,25.42
2023-04-15T23:54:15.703Z,24.49
2023-04-15T23:59:15.103Z,24.06
